createdAt,value
2022-12-09T00:03:51.008Z,98403.30
2022-12-09T00:08:59.622Z,98400.91
2022-12-09T00:14:07.705Z,98400.73
2022-12-09T00:19:25.838Z,98402.40
2022-12-09T00:24:35.144Z,98401.38
2022-12-09T00:29:42.769Z,98401.31
2022-12-09T00:34:51.309Z,98404.77
2022-12-09T00:39:58.494Z,98411.66
2022-12-09T00:45:04.025Z,98418.95
2022-12-09T00:50:13.685Z,98421.27
2022-12-09T00:55:22.720Z,98420.73
2022-12-09T01:00:30.068Z,98423.66
2022-12-09T01:05:37.927Z,98428.94
2022-12-09T01:10:46.822Z,98425.75
2022-12-09T01:15:54.590Z,98422.98
2022-12-09T01:21:02.686Z,98428.38
2022-12-09T01:26:10.634Z,98431.34
2022-12-09T01:31:20.896Z,98428.12
2022-12-09T01:36:31.135Z,98424.67
2022-12-09T01:41:38.750Z,98425.44
2022-12-09T01:46:46.959Z,98419.79
2022-12-09T01:52:03.322Z,98421.34
2022-12-09T01:57:11.954Z,98423.95
2022-12-09T02:02:21.517Z,98421.60
2022-12-09T02:07:30.293Z,98420.13
2022-12-09T02:12:47.246Z,98412.88
2022-12-09T02:17:59.325Z,98408.42
2022-12-09T02:23:12.973Z,98403.90
2022-12-09T02:28:36.269Z,98397.29
2022-12-09T02:33:58.066Z,98395.59
2022-12-09T02:39:09.920Z,98393.16
2022-12-09T02:44:21.205Z,98388.73
2022-12-09T02:49:31.965Z,98388.02
2022-12-09T02:54:43.747Z,98389.48
2022-12-09T02:59:51.244Z,98388.63
2022-12-09T03:05:11.317Z,98394.61
2022-12-09T03:10:25.253Z,98396.39
2022-12-09T03:15:36.756Z,98401.11
2022-12-09T03:20:46.932Z,98392.04
2022-12-09T03:26:00.192Z,98380.27
2022-12-09T03:31:14.860Z,98377.90
2022-12-09T03:36:24.318Z,98371.08
2022-12-09T03:41:34.267Z,98364.96
2022-12-09T03:46:44.412Z,98373.34
2022-12-09T03:51:57.304Z,98378.83
2022-12-09T03:57:05.843Z,98379.24
2022-12-09T04:02:14.210Z,98378.07
2022-12-09T04:07:21.648Z,98375.41
2022-12-09T04:12:27.777Z,98380.30
2022-12-09T04:17:35.156Z,98380.90
2022-12-09T04:22:42.716Z,98378.98
2022-12-09T04:27:50.471Z,98379.19
2022-12-09T04:32:58.009Z,98382.42
2022-12-09T04:38:05.249Z,98378.16
2022-12-09T04:43:12.779Z,98376.23
2022-12-09T04:48:20.440Z,98379.77
2022-12-09T04:53:28.623Z,98378.27
2022-12-09T04:58:41.826Z,98381.73
2022-12-09T05:03:51.706Z,98380.45
2022-12-09T05:08:59.474Z,98382.05
2022-12-09T05:14:06.744Z,98386.95
2022-12-09T05:19:14.758Z,98387.62
2022-12-09T05:24:22.400Z,98384.48
2022-12-09T05:29:29.925Z,98380.14
2022-12-09T05:34:37.685Z,98377.11
2022-12-09T05:39:45.928Z,98374.04
2022-12-09T05:44:53.672Z,98376.87
2022-12-09T05:50:07.406Z,98379.98
2022-12-09T05:55:15.996Z,98376.77
2022-12-09T06:00:25.133Z,98375.98
2022-12-09T06:05:33.602Z,98374.20
2022-12-09T06:10:44.197Z,98372.14
2022-12-09T06:15:51.925Z,98376.54
2022-12-09T06:20:59.670Z,98375.16
2022-12-09T06:26:07.564Z,98375.67
2022-12-09T06:31:15.565Z,98388.36
2022-12-09T06:36:23.673Z,98393.15
2022-12-09T06:41:31.023Z,98391.72
2022-12-09T06:46:39.114Z,98390.73
2022-12-09T06:51:47.017Z,98390.73
2022-12-09T06:56:54.477Z,98384.48
2022-12-09T07:02:02.082Z,98383.30
2022-12-09T07:07:11.207Z,98382.21
2022-12-09T07:12:19.117Z,98390.42
2022-12-09T07:17:27.015Z,98396.73
2022-12-09T07:22:35.682Z,98394.48
2022-12-09T07:27:42.996Z,98373.31
2022-12-09T07:32:50.338Z,98359.83
2022-12-09T07:37:58.606Z,98351.73
2022-12-09T07:43:06.926Z,98339.98
2022-12-09T07:48:14.568Z,98339.64
2022-12-09T07:53:22.292Z,98342.10
2022-12-09T07:58:29.866Z,98338.55
2022-12-09T08:03:38.211Z,98333.48
2022-12-09T08:08:46.620Z,98336.64
2022-12-09T08:13:57.000Z,98344.99
2022-12-09T08:19:04.468Z,98353.01
2022-12-09T08:24:14.011Z,98354.94
2022-12-09T08:29:24.392Z,98357.52
2022-12-09T08:34:35.686Z,98358.46
2022-12-09T08:39:44.368Z,98353.73
2022-12-09T08:44:55.858Z,98350.57
2022-12-09T08:50:09.950Z,98352.06
2022-12-09T08:55:17.641Z,98350.20
2022-12-09T09:00:23.516Z,98343.39
2022-12-09T09:05:31.241Z,98348.90
2022-12-09T09:10:40.091Z,98349.23
2022-12-09T09:15:49.044Z,98338.60
2022-12-09T09:20:59.763Z,98337.61
2022-12-09T09:26:11.719Z,98342.52
2022-12-09T09:31:22.262Z,98341.83
2022-12-09T09:36:30.338Z,98338.27
2022-12-09T09:41:48.121Z,98335.69
2022-12-09T09:46:57.647Z,98328.05
2022-12-09T09:52:13.295Z,98316.58
2022-12-09T09:57:25.577Z,98318.46
2022-12-09T10:02:49.482Z,98321.98
2022-12-09T10:08:07.246Z,98318.05
2022-12-09T10:13:26.898Z,98315.26
2022-12-09T10:18:42.252Z,98308.77
2022-12-09T10:23:51.977Z,98301.66
2022-12-09T10:29:12.252Z,98298.48
2022-12-09T10:34:21.240Z,98290.41
2022-12-09T10:39:31.119Z,98287.45
2022-12-09T10:44:39.164Z,98285.17
2022-12-09T10:49:51.759Z,98278.08
2022-12-09T10:55:01.123Z,98272.88
2022-12-09T11:00:29.619Z,98271.73
2022-12-09T11:05:45.165Z,98281.73
2022-12-09T11:10:53.604Z,98286.14
2022-12-09T11:16:05.356Z,98276.17
2022-12-09T11:21:33.443Z,98263.01
2022-12-09T11:26:40.070Z,98264.13
2022-12-09T11:31:49.177Z,98270.54
2022-12-09T11:36:59.160Z,98272.78
2022-12-09T11:42:18.953Z,98271.66
2022-12-09T11:47:57.320Z,98278.33
2022-12-09T11:53:18.994Z,98271.03
2022-12-09T12:04:02.257Z,98260.98
2022-12-09T12:09:18.396Z,98260.05
2022-12-09T12:14:30.853Z,98239.92
2022-12-09T12:19:41.205Z,98225.08
2022-12-09T12:25:17.508Z,98205.14
2022-12-09T12:30:29.529Z,98195.91
2022-12-09T12:35:49.649Z,98207.52
2022-12-09T12:41:12.251Z,98209.30
2022-12-09T12:46:45.354Z,98199.04
2022-12-09T12:52:01.939Z,98196.86
2022-12-09T12:57:18.563Z,98197.41
2022-12-09T13:02:38.910Z,98194.61
2022-12-09T13:07:51.611Z,98186.07
2022-12-09T13:13:02.250Z,98179.29
2022-12-09T13:18:16.029Z,98186.67
2022-12-09T13:23:35.030Z,98178.34
2022-12-09T13:28:50.816Z,98170.89
2022-12-09T13:34:08.668Z,98165.68
2022-12-09T13:39:36.718Z,98149.58
2022-12-09T13:44:46.942Z,98147.15
2022-12-09T13:50:00.084Z,98135.75
2022-12-09T13:55:18.753Z,98135.10
2022-12-09T14:00:26.068Z,98123.86
2022-12-09T14:05:37.129Z,98128.88
2022-12-09T14:10:50.496Z,98114.62
2022-12-09T14:16:33.417Z,98106.52
2022-12-09T14:21:40.852Z,98119.65
2022-12-09T14:27:09.836Z,98118.98
2022-12-09T14:32:23.964Z,98113.54
2022-12-09T14:37:53.697Z,98116.16
2022-12-09T14:43:16.259Z,98118.00
2022-12-09T14:48:26.988Z,98117.64
2022-12-09T14:53:39.193Z,98123.89
2022-12-09T14:58:51.889Z,98126.70
2022-12-09T15:04:01.246Z,98121.57
2022-12-09T15:09:16.837Z,98116.04
2022-12-09T15:14:30.299Z,98116.52
2022-12-09T15:25:18.196Z,98107.58
2022-12-09T15:30:28.716Z,98106.81
2022-12-09T15:35:36.604Z,98094.52
2022-12-09T15:41:07.612Z,98083.77
2022-12-09T15:46:15.768Z,98072.95
2022-12-09T15:51:26.627Z,98060.50
2022-12-09T15:56:40.390Z,98055.11
2022-12-09T16:01:54.005Z,98040.07
2022-12-09T16:07:13.526Z,98029.33
2022-12-09T16:12:33.991Z,98021.79
2022-12-09T16:17:55.512Z,98014.31
2022-12-09T16:23:05.227Z,98006.53
2022-12-09T16:28:23.689Z,97993.24
2022-12-09T16:33:35.705Z,97985.55
2022-12-09T16:38:44.573Z,97975.37
2022-12-09T16:43:59.743Z,97964.77
2022-12-09T16:49:08.656Z,97956.88
2022-12-09T16:54:21.105Z,97951.98
2022-12-09T16:59:37.047Z,97942.31
2022-12-09T17:04:46.449Z,97932.35
2022-12-09T17:09:54.202Z,97932.76
2022-12-09T17:15:01.472Z,97938.17
2022-12-09T17:20:08.311Z,97939.29
2022-12-09T17:25:15.778Z,97942.01
2022-12-09T17:30:23.262Z,97939.37
2022-12-09T17:35:33.963Z,97933.54
2022-12-09T17:40:41.532Z,97926.89
2022-12-09T17:45:48.771Z,97923.75
2022-12-09T17:50:54.527Z,97921.77
2022-12-09T17:56:05.893Z,97917.13
2022-12-09T18:01:18.817Z,97914.04
2022-12-09T18:06:26.362Z,97902.77
2022-12-09T18:11:33.547Z,97895.05
2022-12-09T18:16:39.290Z,97889.04
2022-12-09T18:21:47.517Z,97890.95
2022-12-09T18:26:55.058Z,97886.92
2022-12-09T18:32:00.457Z,97877.72
2022-12-09T18:37:07.871Z,97865.70
2022-12-09T18:42:13.680Z,97855.66
2022-12-09T18:47:20.960Z,97851.70
2022-12-09T18:52:26.785Z,97855.66
2022-12-09T18:57:34.549Z,97843.52
2022-12-09T19:02:42.775Z,97839.55
2022-12-09T19:07:50.438Z,97830.25
2022-12-09T19:12:59.244Z,97826.30
2022-12-09T19:18:06.768Z,97818.48
2022-12-09T19:23:13.986Z,97814.59
2022-12-09T19:28:20.830Z,97806.09
2022-12-09T19:33:28.143Z,97798.99
2022-12-09T19:38:35.533Z,97797.25
2022-12-09T19:43:42.737Z,97790.71
2022-12-09T19:48:49.800Z,97786.09
2022-12-09T19:53:57.973Z,97785.36
2022-12-09T19:59:06.508Z,97785.32
2022-12-09T20:04:47.135Z,97775.58
2022-12-09T20:09:42.837Z,97777.27
2022-12-09T20:14:50.428Z,97776.19
2022-12-09T20:19:56.128Z,97783.83
2022-12-09T20:25:03.639Z,97784.05
2022-12-09T20:30:13.107Z,97776.63
2022-12-09T20:35:20.897Z,97764.73
2022-12-09T20:40:28.180Z,97754.45
2022-12-09T20:45:34.031Z,97754.92
2022-12-09T20:50:42.963Z,97747.56
2022-12-09T20:55:59.295Z,97754.07
2022-12-09T21:01:13.830Z,97749.06
2022-12-09T21:06:22.949Z,97747.65
2022-12-09T21:11:30.124Z,97747.52
2022-12-09T21:16:36.952Z,97750.48
2022-12-09T21:21:48.546Z,97754.08
2022-12-09T21:26:58.628Z,97758.02
2022-12-09T21:32:06.180Z,97758.44
2022-12-09T21:37:13.423Z,97759.23
2022-12-09T21:42:20.671Z,97751.80
2022-12-09T21:47:28.506Z,97750.35
2022-12-09T21:52:35.772Z,97746.79
2022-12-09T21:57:41.598Z,97744.42
2022-12-09T22:02:54.709Z,97747.57
2022-12-09T22:08:05.220Z,97747.34
2022-12-09T22:13:12.659Z,97744.20
2022-12-09T22:18:20.509Z,97742.69
2022-12-09T22:23:28.490Z,97741.11
2022-12-09T22:28:36.149Z,97736.95
2022-12-09T22:33:43.870Z,97731.47
2022-12-09T22:38:51.852Z,97729.82
2022-12-09T22:43:59.754Z,97726.30
2022-12-09T22:49:08.394Z,97716.17
2022-12-09T22:54:16.633Z,97717.56
2022-12-09T22:59:24.133Z,97708.17
2022-12-09T23:04:31.625Z,97708.19
2022-12-09T23:09:39.343Z,97710.86
2022-12-09T23:14:47.998Z,97714.02
2022-12-09T23:19:55.273Z,97707.05
2022-12-09T23:25:01.207Z,97710.19
2022-12-09T23:30:10.563Z,97701.42
2022-12-09T23:35:19.659Z,97700.46
2022-12-09T23:40:27.242Z,97704.21
2022-12-09T23:45:36.459Z,97705.86
2022-12-09T23:50:44.314Z,97700.95
2022-12-09T23:55:52.512Z,97692.81
